createdAt,value
2018-08-20T00:01:46.492Z,18.70
2018-08-20T00:04:15.109Z,18.70
2018-08-20T00:06:51.399Z,18.80
2018-08-20T00:09:21.377Z,18.80
2018-08-20T00:11:50.010Z,18.80
2018-08-20T00:14:20.920Z,18.80
2018-08-20T00:16:49.573Z,18.80
2018-08-20T00:19:18.044Z,18.80
2018-08-20T00:21:46.667Z,18.80
2018-08-20T00:24:15.076Z,19.00
2018-08-20T00:26:43.537Z,18.90
2018-08-20T00:29:11.989Z,18.90
2018-08-20T00:31:41.603Z,19.00
2018-08-20T00:34:10.089Z,19.10
2018-08-20T00:36:38.722Z,19.00
2018-08-20T00:39:09.056Z,19.00
2018-08-20T00:41:38.637Z,19.00
2018-08-20T00:44:10.838Z,18.90
2018-08-20T00:46:39.432Z,18.80
2018-08-20T00:49:07.880Z,18.80
2018-08-20T00:51:36.706Z,18.90
2018-08-20T00:54:05.182Z,18.90
2018-08-20T00:56:33.756Z,18.90
2018-08-20T00:59:03.155Z,18.80
2018-08-20T01:01:32.045Z,18.50
2018-08-20T01:04:00.978Z,18.40
2018-08-20T01:06:30.030Z,18.50
2018-08-20T01:08:58.482Z,18.40
2018-08-20T01:11:28.044Z,18.40
2018-08-20T01:13:56.544Z,18.50
2018-08-20T01:16:25.614Z,18.50
2018-08-20T01:18:54.377Z,18.50
2018-08-20T01:21:24.382Z,18.50
2018-08-20T01:23:52.794Z,18.60
2018-08-20T01:26:21.190Z,18.60
2018-08-20T01:28:49.822Z,18.60
2018-08-20T01:31:18.302Z,18.50
2018-08-20T01:33:46.811Z,18.50
2018-08-20T01:36:15.307Z,18.50
2018-08-20T01:38:43.878Z,18.50
2018-08-20T01:41:12.323Z,18.30
2018-08-20T01:43:40.844Z,18.40
2018-08-20T01:46:09.476Z,18.30
2018-08-20T01:48:38.044Z,18.40
2018-08-20T01:51:06.513Z,18.50
2018-08-20T01:53:35.010Z,18.50
2018-08-20T01:56:03.460Z,18.30
2018-08-20T01:58:32.466Z,18.20
2018-08-20T02:01:00.946Z,18.10
2018-08-20T02:03:29.936Z,18.10
2018-08-20T02:05:58.431Z,18.20
2018-08-20T02:08:27.024Z,18.20
2018-08-20T02:10:56.373Z,18.00
2018-08-20T02:13:25.582Z,17.90
2018-08-20T02:15:54.121Z,17.80
2018-08-20T02:18:22.696Z,17.90
2018-08-20T02:20:51.166Z,17.80
2018-08-20T02:23:19.719Z,17.80
2018-08-20T02:25:48.405Z,17.80
2018-08-20T02:28:16.906Z,17.60
2018-08-20T02:30:45.322Z,17.70
2018-08-20T02:33:13.760Z,17.80
2018-08-20T02:35:42.344Z,17.80
2018-08-20T02:38:10.865Z,17.80
2018-08-20T02:40:39.612Z,17.70
2018-08-20T02:43:08.121Z,17.80
2018-08-20T02:45:37.062Z,17.90
2018-08-20T02:48:06.240Z,17.90
2018-08-20T02:50:34.930Z,18.00
2018-08-20T02:53:03.488Z,18.10
2018-08-20T02:55:31.987Z,18.10
2018-08-20T02:58:00.486Z,18.10
2018-08-20T03:00:29.025Z,18.10
2018-08-20T03:03:01.759Z,18.10
2018-08-20T03:05:30.292Z,18.10
2018-08-20T03:07:59.055Z,18.30
2018-08-20T03:10:27.575Z,18.10
2018-08-20T03:12:55.992Z,18.20
2018-08-20T03:15:25.531Z,18.20
2018-08-20T03:17:54.337Z,18.20
2018-08-20T03:20:22.768Z,18.10
2018-08-20T03:22:51.186Z,18.10
2018-08-20T03:25:19.801Z,18.00
2018-08-20T03:27:48.243Z,18.10
2018-08-20T03:30:17.115Z,18.10
2018-08-20T03:32:45.543Z,18.10
2018-08-20T03:35:14.515Z,18.20
2018-08-20T03:37:42.944Z,18.20
2018-08-20T03:40:12.729Z,18.20
2018-08-20T03:42:41.530Z,18.20
2018-08-20T03:45:10.725Z,18.20
2018-08-20T03:47:39.281Z,18.10
2018-08-20T03:50:10.298Z,18.10
2018-08-20T03:52:39.170Z,18.00
2018-08-20T03:55:07.614Z,18.00
2018-08-20T03:57:36.496Z,18.00
2018-08-20T04:00:05.867Z,18.00
2018-08-20T04:02:34.226Z,17.90
2018-08-20T04:05:02.791Z,17.80
2018-08-20T04:07:31.390Z,17.80
2018-08-20T04:10:00.033Z,17.90
2018-08-20T04:12:28.473Z,17.80
2018-08-20T04:14:56.938Z,17.70
2018-08-20T04:17:25.386Z,17.80
2018-08-20T04:19:54.109Z,17.60
2018-08-20T04:22:22.534Z,17.60
2018-08-20T04:24:50.972Z,17.50
2018-08-20T04:27:19.355Z,17.60
2018-08-20T04:29:47.930Z,17.60
2018-08-20T04:32:16.359Z,17.40
2018-08-20T04:34:44.847Z,17.40
2018-08-20T04:37:13.244Z,17.30
2018-08-20T04:39:41.799Z,17.30
2018-08-20T04:42:10.250Z,17.40
2018-08-20T04:44:38.849Z,17.20
2018-08-20T04:47:07.370Z,17.10
2018-08-20T04:49:35.754Z,17.20
2018-08-20T04:52:04.325Z,17.10
2018-08-20T04:54:32.690Z,17.00
2018-08-20T04:57:01.231Z,17.10
2018-08-20T04:59:30.000Z,17.00
2018-08-20T05:01:58.962Z,17.20
2018-08-20T05:04:28.144Z,17.20
2018-08-20T05:06:57.639Z,17.20
2018-08-20T05:09:26.856Z,17.20
2018-08-20T05:11:55.663Z,17.20
2018-08-20T05:14:24.188Z,17.30
2018-08-20T05:16:52.744Z,17.10
2018-08-20T05:19:21.250Z,17.20
2018-08-20T05:21:49.806Z,17.30
2018-08-20T05:24:18.275Z,17.30
2018-08-20T05:26:46.902Z,17.30
2018-08-20T05:29:15.563Z,17.10
2018-08-20T05:31:44.301Z,17.20
2018-08-20T05:34:12.771Z,17.20
2018-08-20T05:36:41.288Z,17.30
2018-08-20T05:39:11.031Z,17.30
2018-08-20T05:41:40.647Z,17.30
2018-08-20T05:44:09.141Z,17.30
2018-08-20T05:46:37.757Z,17.30
2018-08-20T05:49:06.483Z,17.50
2018-08-20T05:51:34.999Z,17.50
2018-08-20T05:54:03.781Z,17.60
2018-08-20T05:56:32.506Z,17.60
2018-08-20T05:59:00.944Z,17.70
2018-08-20T06:01:30.134Z,17.70
2018-08-20T06:03:58.569Z,17.70
2018-08-20T06:06:27.879Z,17.80
2018-08-20T06:08:57.389Z,17.90
2018-08-20T06:11:26.915Z,18.00
2018-08-20T06:13:56.456Z,18.00
2018-08-20T06:16:25.860Z,18.00
2018-08-20T06:18:54.342Z,18.00
2018-08-20T06:21:24.237Z,18.10
2018-08-20T06:23:52.694Z,18.10
2018-08-20T06:26:21.441Z,18.10
2018-08-20T06:28:49.872Z,18.20
2018-08-20T06:31:19.531Z,18.30
2018-08-20T06:33:48.286Z,18.30
2018-08-20T06:36:16.930Z,18.40
2018-08-20T06:38:45.410Z,18.50
2018-08-20T06:41:14.304Z,18.60
2018-08-20T06:43:42.747Z,18.60
2018-08-20T06:46:11.769Z,18.60
2018-08-20T06:48:40.342Z,18.70
2018-08-20T06:51:10.155Z,18.70
2018-08-20T06:53:38.582Z,18.70
2018-08-20T06:56:07.540Z,18.70
2018-08-20T06:58:36.055Z,18.70
2018-08-20T07:01:05.652Z,18.80
2018-08-20T07:03:34.474Z,18.80
2018-08-20T07:06:03.415Z,18.80
2018-08-20T07:08:31.863Z,18.90
2018-08-20T07:11:01.414Z,19.00
2018-08-20T07:13:33.498Z,19.10
2018-08-20T07:16:02.083Z,19.10
2018-08-20T07:18:30.580Z,19.20
2018-08-20T07:21:01.886Z,19.20
2018-08-20T07:23:30.922Z,19.40
2018-08-20T07:25:59.577Z,19.40
2018-08-20T07:28:28.486Z,19.40
2018-08-20T07:30:57.863Z,19.40
2018-08-20T07:33:27.020Z,19.40
2018-08-20T07:35:56.301Z,19.40
2018-08-20T07:38:24.658Z,19.60
2018-08-20T07:40:54.185Z,19.70
2018-08-20T07:43:22.704Z,19.80
2018-08-20T07:45:51.305Z,19.80
2018-08-20T07:48:20.191Z,19.80
2018-08-20T07:50:48.774Z,19.80
2018-08-20T07:53:17.351Z,19.90
2018-08-20T07:55:46.328Z,19.90
2018-08-20T07:58:14.938Z,20.00
2018-08-20T08:00:43.813Z,20.00
2018-08-20T08:03:12.611Z,20.00
2018-08-20T08:05:41.152Z,20.10
2018-08-20T08:08:09.579Z,20.10
2018-08-20T08:10:38.062Z,20.20
2018-08-20T08:13:06.610Z,20.30
2018-08-20T08:15:35.797Z,20.30
2018-08-20T08:18:04.280Z,20.40
2018-08-20T08:20:32.774Z,20.50
2018-08-20T08:23:01.540Z,20.60
2018-08-20T08:25:30.133Z,20.60
2018-08-20T08:27:58.953Z,20.70
2018-08-20T08:30:28.057Z,20.80
2018-08-20T08:32:56.523Z,20.80
2018-08-20T08:35:25.048Z,20.90
2018-08-20T08:37:53.886Z,21.00
2018-08-20T08:40:22.534Z,20.90
2018-08-20T08:42:51.043Z,20.90
2018-08-20T08:45:19.576Z,21.00
2018-08-20T08:47:48.324Z,21.10
2018-08-20T08:50:17.633Z,21.10
2018-08-20T08:52:46.602Z,21.10
2018-08-20T08:55:15.494Z,21.20
2018-08-20T08:57:44.331Z,21.30
2018-08-20T09:01:46.081Z,21.30
2018-08-20T09:04:14.649Z,21.30
2018-08-20T09:06:43.129Z,21.40
2018-08-20T09:09:11.581Z,21.50
2018-08-20T09:11:40.133Z,21.50
2018-08-20T09:14:08.644Z,21.50
2018-08-20T09:16:37.188Z,21.70
2018-08-20T09:19:05.769Z,21.70
2018-08-20T09:21:34.384Z,21.80
2018-08-20T09:24:03.267Z,21.70
2018-08-20T09:26:31.758Z,21.80
2018-08-20T09:29:00.200Z,21.80
2018-08-20T09:31:29.799Z,21.80
2018-08-20T09:33:59.283Z,21.80
2018-08-20T09:36:27.816Z,22.00
2018-08-20T09:38:56.351Z,22.10
2018-08-20T09:41:24.879Z,22.10
2018-08-20T09:43:53.375Z,22.20
2018-08-20T09:46:22.022Z,22.20
2018-08-20T09:48:50.633Z,22.30
2018-08-20T09:51:19.206Z,22.20
2018-08-20T09:53:47.611Z,22.30
2018-08-20T09:56:16.174Z,22.30
2018-08-20T09:58:45.079Z,22.40
2018-08-20T10:01:13.485Z,22.50
2018-08-20T10:03:44.711Z,22.30
2018-08-20T10:06:14.057Z,22.30
2018-08-20T10:08:42.516Z,22.60
2018-08-20T10:11:11.883Z,22.60
2018-08-20T10:13:40.307Z,22.70
2018-08-20T10:16:09.040Z,22.60
2018-08-20T10:18:38.081Z,22.70
2018-08-20T10:21:06.963Z,22.70
2018-08-20T10:23:35.611Z,22.70
2018-08-20T10:26:04.122Z,22.80
2018-08-20T10:28:32.561Z,22.80
2018-08-20T10:31:01.092Z,22.90
2018-08-20T10:33:29.490Z,23.00
2018-08-20T10:35:58.588Z,23.10
2018-08-20T10:38:27.287Z,23.10
2018-08-20T10:40:58.495Z,22.90
2018-08-20T10:43:27.228Z,22.90
2018-08-20T10:46:30.678Z,22.90
2018-08-20T10:48:59.130Z,23.00
2018-08-20T10:51:28.230Z,23.20
2018-08-20T10:53:57.179Z,23.10
2018-08-20T10:56:25.829Z,23.10
2018-08-20T10:58:54.365Z,23.10
2018-08-20T11:01:24.823Z,23.20
2018-08-20T11:03:56.970Z,23.20
2018-08-20T11:06:27.337Z,23.30
2018-08-20T11:08:55.863Z,23.50
2018-08-20T11:11:24.318Z,23.60
2018-08-20T11:13:52.747Z,23.60
2018-08-20T11:16:21.325Z,23.60
2018-08-20T11:18:49.838Z,23.70
2018-08-20T11:21:18.399Z,23.80
2018-08-20T11:23:47.161Z,23.70
2018-08-20T11:26:16.692Z,23.90
2018-08-20T11:28:45.089Z,23.80
2018-08-20T11:31:13.910Z,23.80
2018-08-20T11:33:42.300Z,23.80
2018-08-20T11:36:10.746Z,23.80
2018-08-20T11:38:39.270Z,23.90
2018-08-20T11:41:07.784Z,24.00
2018-08-20T11:43:36.183Z,24.10
2018-08-20T11:46:08.532Z,24.30
2018-08-20T11:48:36.947Z,24.30
2018-08-20T11:51:08.929Z,24.30
2018-08-20T11:53:37.306Z,24.40
2018-08-20T11:56:06.171Z,24.40
2018-08-20T11:58:34.575Z,24.50
2018-08-20T12:01:04.298Z,24.50
2018-08-20T12:03:32.868Z,24.70
2018-08-20T12:06:01.475Z,24.50
2018-08-20T12:08:30.004Z,24.50
2018-08-20T12:10:59.542Z,24.60
2018-08-20T12:13:28.762Z,24.70
2018-08-20T12:15:59.042Z,24.70
2018-08-20T12:18:27.497Z,24.70
2018-08-20T12:20:56.986Z,24.70
2018-08-20T12:23:25.783Z,24.70
2018-08-20T12:25:56.634Z,24.80
2018-08-20T12:28:25.055Z,24.70
2018-08-20T12:30:54.558Z,24.90
2018-08-20T12:33:23.135Z,25.00
2018-08-20T12:35:51.675Z,25.00
2018-08-20T12:38:20.084Z,25.00
2018-08-20T12:40:48.680Z,25.20
2018-08-20T12:43:17.132Z,25.00
2018-08-20T12:45:45.622Z,25.30
2018-08-20T12:48:14.025Z,25.30
2018-08-20T12:50:43.699Z,25.40
2018-08-20T12:53:12.105Z,25.40
2018-08-20T12:55:41.621Z,25.30
2018-08-20T12:58:10.621Z,25.30
2018-08-20T13:00:39.221Z,25.40
2018-08-20T13:03:07.778Z,25.60
2018-08-20T13:05:36.297Z,25.50
2018-08-20T13:08:05.087Z,25.70
2018-08-20T13:10:34.555Z,25.60
2018-08-20T13:13:02.957Z,25.70
2018-08-20T13:15:31.399Z,25.80
2018-08-20T13:18:00.112Z,25.90
2018-08-20T13:20:30.465Z,25.80
2018-08-20T13:22:59.671Z,25.70
2018-08-20T13:25:30.199Z,25.90
2018-08-20T13:27:59.609Z,26.00
2018-08-20T13:30:30.480Z,26.10
2018-08-20T13:32:59.511Z,26.30
2018-08-20T13:35:30.082Z,26.50
2018-08-20T13:37:59.563Z,26.60
2018-08-20T13:40:30.537Z,26.70
2018-08-20T13:42:59.810Z,26.80
2018-08-20T13:45:32.847Z,27.00
2018-08-20T13:48:01.364Z,27.10
2018-08-20T13:50:31.492Z,27.20
2018-08-20T13:53:00.802Z,27.40
2018-08-20T13:55:34.985Z,27.40
2018-08-20T13:58:03.754Z,27.40
2018-08-20T14:00:32.211Z,27.50
2018-08-20T14:03:00.647Z,27.50
2018-08-20T14:05:30.141Z,27.50
2018-08-20T14:07:59.143Z,27.60
2018-08-20T14:10:28.014Z,27.70
2018-08-20T14:12:56.470Z,27.80
2018-08-20T14:15:28.260Z,27.80
2018-08-20T14:17:58.043Z,27.80
2018-08-20T14:20:27.167Z,27.80
2018-08-20T14:22:55.557Z,27.60
2018-08-20T14:25:24.144Z,27.50
2018-08-20T14:27:52.573Z,27.60
2018-08-20T14:30:21.084Z,27.70
2018-08-20T14:32:49.616Z,27.60
2018-08-20T14:35:18.073Z,27.80
2018-08-20T14:37:46.575Z,28.10
2018-08-20T14:40:17.154Z,28.10
2018-08-20T14:42:46.007Z,28.20
2018-08-20T14:45:15.812Z,28.20
2018-08-20T14:47:45.260Z,28.10
2018-08-20T14:50:15.854Z,28.20
2018-08-20T14:52:44.320Z,28.40
2018-08-20T14:55:13.239Z,28.30
2018-08-20T14:57:41.654Z,28.40
2018-08-20T15:00:13.254Z,28.40
2018-08-20T15:02:41.719Z,28.40
2018-08-20T15:05:10.321Z,28.40
2018-08-20T15:07:38.786Z,28.20
2018-08-20T15:10:09.339Z,28.20
2018-08-20T15:12:37.794Z,28.20
2018-08-20T15:15:07.347Z,28.10
2018-08-20T15:17:35.912Z,27.90
2018-08-20T15:20:05.622Z,28.00
2018-08-20T15:22:34.052Z,28.00
2018-08-20T15:25:02.595Z,27.80
2018-08-20T15:27:30.959Z,27.70
2018-08-20T15:30:00.390Z,27.60
2018-08-20T15:32:29.157Z,27.50
2018-08-20T15:34:57.987Z,27.40
2018-08-20T15:37:26.516Z,27.40
2018-08-20T15:39:55.016Z,27.40
2018-08-20T15:42:23.446Z,27.40
2018-08-20T15:44:51.899Z,27.30
2018-08-20T15:47:20.404Z,27.30
2018-08-20T15:49:48.898Z,27.20
2018-08-20T15:52:17.320Z,27.20
2018-08-20T15:54:45.856Z,27.10
2018-08-20T15:57:14.269Z,27.00
2018-08-20T15:59:44.481Z,27.00
2018-08-20T16:02:13.227Z,26.90
2018-08-20T16:04:41.894Z,26.90
2018-08-20T16:07:10.398Z,26.90
2018-08-20T16:09:38.893Z,26.80
2018-08-20T16:12:07.419Z,26.70
2018-08-20T16:14:35.946Z,26.70
2018-08-20T16:17:04.413Z,26.60
2018-08-20T16:19:32.892Z,26.40
2018-08-20T16:22:01.333Z,26.40
2018-08-20T16:24:30.387Z,26.30
2018-08-20T16:26:59.207Z,26.20
2018-08-20T16:29:28.475Z,26.10
2018-08-20T16:31:56.957Z,26.00
2018-08-20T16:34:25.737Z,25.90
2018-08-20T16:36:54.229Z,25.90
2018-08-20T16:39:23.146Z,25.90
2018-08-20T16:41:51.700Z,25.80
2018-08-20T16:44:20.468Z,25.70
2018-08-20T16:46:48.894Z,25.60
2018-08-20T16:49:17.416Z,25.60
2018-08-20T16:51:45.902Z,25.50
2018-08-20T16:54:14.404Z,25.50
2018-08-20T16:56:42.934Z,25.40
2018-08-20T16:59:11.757Z,25.40
2018-08-20T17:01:40.363Z,25.40
2018-08-20T17:04:24.502Z,25.40
2018-08-20T17:06:53.104Z,25.40
2018-08-20T17:09:21.674Z,25.40
2018-08-20T17:11:50.015Z,25.30
2018-08-20T17:14:18.477Z,25.30
2018-08-20T17:16:46.913Z,25.20
2018-08-20T17:19:15.497Z,25.20
2018-08-20T17:21:44.023Z,25.20
2018-08-20T17:24:12.634Z,25.10
2018-08-20T17:26:41.073Z,25.10
2018-08-20T17:29:10.591Z,25.00
2018-08-20T17:31:39.422Z,25.00
2018-08-20T17:34:08.020Z,25.00
2018-08-20T17:36:40.154Z,25.00
2018-08-20T17:39:09.601Z,24.90
2018-08-20T17:41:38.336Z,24.90
2018-08-20T17:44:06.937Z,24.80
2018-08-20T17:46:35.394Z,24.80
2018-08-20T17:49:03.961Z,24.80
2018-08-20T17:51:32.458Z,24.80
2018-08-20T17:54:01.017Z,24.70
2018-08-20T17:56:29.976Z,24.70
2018-08-20T17:59:03.452Z,24.70
2018-08-20T18:01:35.524Z,24.70
2018-08-20T18:04:04.338Z,24.60
2018-08-20T18:06:45.319Z,24.40
2018-08-20T18:09:14.191Z,24.30
2018-08-20T18:11:48.125Z,24.30
2018-08-20T18:14:16.893Z,24.30
2018-08-20T18:16:45.728Z,24.10
2018-08-20T18:19:14.413Z,24.00
2018-08-20T18:21:43.064Z,23.70
2018-08-20T18:24:16.714Z,23.60
2018-08-20T18:26:47.313Z,23.70
2018-08-20T18:29:15.750Z,23.60
2018-08-20T18:31:44.509Z,23.30
2018-08-20T18:34:13.048Z,23.20
2018-08-20T18:36:41.892Z,23.10
2018-08-20T18:39:12.247Z,23.00
2018-08-20T18:42:15.361Z,22.90
2018-08-20T18:44:44.539Z,22.90
2018-08-20T18:47:14.244Z,22.90
2018-08-20T18:49:54.626Z,22.90
2018-08-20T18:52:23.952Z,22.70
2018-08-20T18:54:53.803Z,22.70
2018-08-20T18:57:23.714Z,22.70
2018-08-20T18:59:52.950Z,22.70
2018-08-20T19:02:56.341Z,22.40
2018-08-20T19:05:24.783Z,22.40
2018-08-20T19:07:53.382Z,22.20
2018-08-20T19:10:29.262Z,22.10
2018-08-20T19:12:58.440Z,22.20
2018-08-20T19:15:45.595Z,22.10
2018-08-20T19:18:18.678Z,22.00
2018-08-20T19:20:47.184Z,22.00
2018-08-20T19:23:16.240Z,22.10
2018-08-20T19:25:44.675Z,22.00
2018-08-20T19:28:18.599Z,21.90
2018-08-20T19:30:47.426Z,21.80
2018-08-20T19:33:21.418Z,21.70
2018-08-20T19:35:50.173Z,21.70
2018-08-20T19:38:19.762Z,21.60
2018-08-20T19:40:58.361Z,21.70
2018-08-20T19:43:30.536Z,21.60
2018-08-20T19:45:59.358Z,21.50
2018-08-20T19:48:28.333Z,21.30
2018-08-20T19:50:56.769Z,21.40
2018-08-20T19:53:25.306Z,21.30
2018-08-20T19:55:54.480Z,21.20
2018-08-20T19:58:28.391Z,21.30
2018-08-20T20:01:08.471Z,21.30
2018-08-20T20:03:37.013Z,21.10
2018-08-20T20:06:05.943Z,21.10
2018-08-20T20:08:34.414Z,21.10
2018-08-20T20:11:03.081Z,21.30
2018-08-20T20:13:31.450Z,21.10
2018-08-20T20:16:01.313Z,20.90
2018-08-20T20:18:29.813Z,21.00
2018-08-20T20:20:58.308Z,21.10
2018-08-20T20:23:27.094Z,20.90
2018-08-20T20:25:56.071Z,20.80
2018-08-20T20:28:24.489Z,20.90
2018-08-20T20:30:52.939Z,20.90
2018-08-20T20:33:22.616Z,20.70
2018-08-20T20:35:51.170Z,20.80
2018-08-20T20:38:19.624Z,20.80
2018-08-20T20:40:48.247Z,20.80
2018-08-20T20:43:19.530Z,20.70
2018-08-20T20:45:47.972Z,20.60
2018-08-20T20:48:16.538Z,20.70
2018-08-20T20:50:44.956Z,20.70
2018-08-20T20:53:13.526Z,20.70
2018-08-20T20:55:42.007Z,20.60
2018-08-20T20:58:14.605Z,20.50
2018-08-20T21:00:43.090Z,20.60
2018-08-20T21:03:28.153Z,20.40
2018-08-20T21:05:57.226Z,20.40
2018-08-20T21:08:32.308Z,20.40
2018-08-20T21:11:01.086Z,20.60
2018-08-20T21:13:29.976Z,20.90
2018-08-20T21:16:03.719Z,21.10
2018-08-20T21:18:34.201Z,21.00
2018-08-20T21:21:02.699Z,20.70
2018-08-20T21:23:31.788Z,20.70
2018-08-20T21:26:00.776Z,20.70
2018-08-20T21:28:34.699Z,20.60
2018-08-20T21:31:03.333Z,20.50
2018-08-20T21:33:31.953Z,20.50
2018-08-20T21:36:00.428Z,20.40
2018-08-20T21:38:30.536Z,20.50
2018-08-20T21:40:59.870Z,20.50
2018-08-20T21:43:32.657Z,20.40
2018-08-20T21:46:01.240Z,20.30
2018-08-20T21:48:30.135Z,20.20
2018-08-20T21:51:02.122Z,20.20
2018-08-20T21:53:36.083Z,20.10
2018-08-20T21:56:05.797Z,20.00
2018-08-20T21:58:36.196Z,20.00
2018-08-20T22:01:05.557Z,20.00
2018-08-20T22:03:34.191Z,20.10
2018-08-20T22:06:02.659Z,20.00
2018-08-20T22:08:31.707Z,20.10
2018-08-20T22:11:00.260Z,20.20
2018-08-20T22:13:28.854Z,20.20
2018-08-20T22:16:11.014Z,20.30
2018-08-20T22:18:40.550Z,20.30
2018-08-20T22:21:13.768Z,20.10
2018-08-20T22:23:43.141Z,20.10
2018-08-20T22:26:17.854Z,20.10
2018-08-20T22:28:48.746Z,20.00
2018-08-20T22:31:17.476Z,20.00
2018-08-20T22:33:58.512Z,19.90
2018-08-20T22:36:28.688Z,19.90
2018-08-20T22:39:00.515Z,20.00
2018-08-20T22:41:30.348Z,19.80
2018-08-20T22:43:58.915Z,19.80
2018-08-20T22:46:27.412Z,19.50
2018-08-20T22:48:57.520Z,19.50
2018-08-20T22:51:26.990Z,19.50
2018-08-20T22:53:57.941Z,19.50
2018-08-20T22:56:29.783Z,19.50
2018-08-20T22:59:01.882Z,19.50
2018-08-20T23:01:31.255Z,19.40
2018-08-20T23:04:00.571Z,19.50
2018-08-20T23:06:29.929Z,19.50
2018-08-20T23:08:58.572Z,19.60
2018-08-20T23:11:39.540Z,19.50
2018-08-20T23:14:09.648Z,19.40
2018-08-20T23:16:38.590Z,19.40
2018-08-20T23:19:08.155Z,19.40
2018-08-20T23:21:44.715Z,19.50
2018-08-20T23:24:13.903Z,19.40
2018-08-20T23:26:42.658Z,19.30
2018-08-20T23:29:11.391Z,19.10
2018-08-20T23:31:40.740Z,19.10
2018-08-20T23:34:10.919Z,19.20
2018-08-20T23:36:39.938Z,19.30
2018-08-20T23:39:10.235Z,19.30
2018-08-20T23:41:39.083Z,19.30
2018-08-20T23:44:07.622Z,19.30
2018-08-20T23:46:43.914Z,19.30
2018-08-20T23:49:12.387Z,19.40
2018-08-20T23:51:41.204Z,19.40
2018-08-20T23:54:10.829Z,19.40
2018-08-20T23:56:39.394Z,19.20
2018-08-20T23:59:08.640Z,19.20
